METAR Analyzer

一覧表示

Hello, Guest. (Login)

CYOW/YOW  -  オタワ・マクドナルド・カルティエ

観測日時
2021-01-27 15:00 (UTC) (85分前)
気温
-7
露点
-9
湿数
2
相対湿度
85.6%
QNH
1019.6hPa
推定現地気圧
1005.8hPa
推定海面気圧
1020.7hPa
体感温度
-24.4
(無風時)
-1.7
HI
-9.4
気温前日比
-1
体感温度前日比
-2.9
HI前日比
-0.9
水平視程
>15SM
鉛直視程
データなし
雲底高度
3700ft AGL
V/I
VMC (VFR)
RVR
No RVR data
卓越風
10kt from 300°
ガスト
No gust
降水
報告なし
その他の天気
報告なし
隙間のある(7/8) 層積雲 @ 3700ft AGL

CYOW 271500Z 30010KT 15SM BKN037 M07/M09 A3011 RMK SC7 SLP205

CYUL/YUL  -  モントリオール・ピエール・エリオット・トルドー

観測日時
2021-01-27 15:00 (UTC) (85分前)
気温
-4
露点
-6
湿数
2
相対湿度
85.9%
QNH
1018.6hPa
推定現地気圧
1014.3hPa
推定海面気圧
1018.9hPa
体感温度
-15.6
(無風時)
0.8
HI
-6.1
気温前日比
+3
体感温度前日比
+5.4
HI前日比
+3.5
水平視程
>12SM
鉛直視程
データなし
雲底高度
1200ft AGL
V/I
VMC (VFR)
RVR
No RVR data
卓越風
5kt from 330°
ガスト
No gust
降水
弱い雪
その他の天気
報告なし
隙間のある(6/8) 層積雲 @ 1200ft AGL / 隙間のある(1/8) 層積雲 @ 3000ft AGL / 全天を覆う(1/8) 高積雲 @ 9000ft AGL

CYUL 271500Z 33005KT 12SM -SN BKN012 BKN030 OVC090 M04/M06 A3008 RMK SC6SC1AC1 SLP189

CYVR/YVR  -  バンクーバー

観測日時
2021-01-27 15:13 (UTC) (72分前)
気温
2
露点
1
湿数
1
相対湿度
93.1%
QNH
1000.0hPa
推定現地気圧
999.5hPa
推定海面気圧
1000.0hPa
体感温度
-10.7
(無風時)
5.7
HI
0.7
気温前日比
±0
体感温度前日比
+3.7
HI前日比
±0
水平視程
>12SM
鉛直視程
データなし
雲底高度
5300ft AGL
V/I
VMC (VFR)
RVR
No RVR data
卓越風
7kt from 60°
ガスト
No gust
降水
弱い雨
その他の天気
報告なし
散在する(3/8) 層積雲 @ 4400ft AGL / 全天を覆う(5/8) 層積雲 @ 5300ft AGL

CYVR 271513Z 06007KT 12SM -RA SCT044 OVC053 02/01 A2953 RMK SC3SC5 SLP001

KJFK/JFK  -  ジョン・F・ケネディ

観測日時
2021-01-27 15:51 (UTC) (34分前)
気温
3.3
露点
-3.3
湿数
6.6
相対湿度
61.9%
QNH
1017.3hPa
推定現地気圧
1016.8hPa
推定海面気圧
1017.3hPa
体感温度
-10.5
(無風時)
7.6
HI
1.3
気温前日比
+1.6
体感温度前日比
-1.4
HI前日比
+2
水平視程
>10SM
鉛直視程
データなし
雲底高度
4200ft AGL
V/I
VMC (VFR)
RVR
No RVR data
卓越風
15kt from 330°
ガスト
22kt
降水
報告なし
その他の天気
報告なし
少しの雲 @ 3400ft AGL / 隙間のある雲 @ 4200ft AGL

KJFK 271551Z 33015G22KT 10SM FEW034 BKN042 03/M03 A3004 RMK AO2 SLP170 T00331033

KLGA/LGA  -  ラガーディア

観測日時
2021-01-27 15:51 (UTC) (34分前)
気温
3.3
露点
-3.9
湿数
7.2
相対湿度
59.2%
QNH
1016.9hPa
推定現地気圧
1016.2hPa
推定海面気圧
1017.0hPa
体感温度
-10
(無風時)
7.7
HI
1.2
気温前日比
+1.1
体感温度前日比
-3.3
HI前日比
+1.6
水平視程
>10SM
鉛直視程
データなし
雲底高度
4200ft AGL
V/I
VMC (VFR)
RVR
No RVR data
卓越風
14kt from 310°
ガスト
No gust
降水
報告なし
その他の天気
報告なし
少しの雲 @ 2400ft AGL / 全天を覆う雲 @ 4200ft AGL

KLGA 271551Z 31014KT 10SM FEW024 OVC042 03/M04 A3003 RMK AO2 SLP169 T00331039

KEWR/EWR  -  ニューアーク・リバティー

観測日時
2021-01-27 15:51 (UTC) (34分前)
気温
2.8
露点
-3.9
湿数
6.7
相対湿度
61.3%
QNH
1017.6hPa
推定現地気圧
1017.0hPa
推定海面気圧
1017.6hPa
体感温度
-11.4
(無風時)
7.3
HI
0.7
気温前日比
+1.1
体感温度前日比
-3.1
HI前日比
+1.5
水平視程
>10SM
鉛直視程
データなし
雲底高度
4000ft AGL
V/I
VMC (VFR)
RVR
No RVR data
卓越風
16kt from 300°
ガスト
24kt
降水
報告なし
その他の天気
報告なし
少しの雲 @ 3200ft AGL / 隙間のある雲 @ 4000ft AGL / 隙間のある雲 @ 7500ft AGL

KEWR 271551Z 30016G24KT 10SM FEW032 BKN040 BKN075 03/M04 A3005 RMK AO2 SLP174 T00281039

KIAD/IAD  -  ワシントン・ダレス

観測日時
2021-01-27 15:52 (UTC) (33分前)
気温
5
露点
-2.2
湿数
7.2
相対湿度
59.6%
QNH
1020.7hPa
推定現地気圧
1009.3hPa
推定海面気圧
1021.1hPa
体感温度
-6.7
(無風時)
8.9
HI
3.1
気温前日比
+4.4
体感温度前日比
+0.9
HI前日比
+3.9
水平視程
>10SM
鉛直視程
データなし
雲底高度
4500ft AGL
V/I
VMC (VFR)
RVR
No RVR data
卓越風
11kt from 320°
ガスト
18kt
降水
報告なし
その他の天気
報告なし
散在する雲 @ 2700ft AGL / 隙間のある雲 @ 4500ft AGL / 隙間のある雲 @ 12000ft AGL

KIAD 271552Z 32011G18KT 10SM SCT027 BKN045 BKN120 05/M02 A3014 RMK AO2 PRESRR SLP210 T00501022

KDET/DET  -  コールマン・A・ヤング

観測日時
2021-01-27 15:53 (UTC) (32分前)
気温
-5
露点
-10.6
湿数
5.6
相対湿度
64.7%
QNH
1026.4hPa
推定現地気圧
1003.4hPa
推定海面気圧
1028.1hPa
体感温度
-19.1
(無風時)
1.2
HI
-7.8
気温前日比
-4.4
体感温度前日比
-4.5
HI前日比
-5.5
水平視程
>10SM
鉛直視程
データなし
雲底高度
No dense clouds
V/I
VMC (VFR)
RVR
No RVR data
卓越風
10kt from 360°
ガスト
No gust
降水
報告なし
その他の天気
報告なし
目立った雲なし

KDET 271553Z 36010KT 10SM CLR M05/M11 A3031 RMK AO2 SLP272 T10501106

KMCO/MCO  -  オーランド

観測日時
2021-01-27 15:53 (UTC) (32分前)
気温
22.2
露点
18.9
湿数
3.3
相対湿度
81.6%
QNH
1019.0hPa
推定現地気圧
1015.5hPa
推定海面気圧
1018.9hPa
体感温度
14.4
(無風時)
22.8
HI
22.6
気温前日比
+3
体感温度前日比
+2.4
HI前日比
+2.9
水平視程
>10SM
鉛直視程
データなし
雲底高度
1300ft AGL
V/I
VMC (VFR)
RVR
No RVR data
卓越風
14kt from 220°
ガスト
No gust
降水
報告なし
その他の天気
報告なし
隙間のある雲 @ 1300ft AGL / 隙間のある雲 @ 25000ft AGL

KMCO 271553Z 22014KT 10SM BKN013 BKN250 22/19 A3009 RMK AO2 SLP187 T02220189

KMIA/MIA  -  マイアミ

観測日時
2021-01-27 15:53 (UTC) (32分前)
気温
26.7
露点
19.4
湿数
7.3
相対湿度
64.3%
QNH
1019.3hPa
推定現地気圧
1018.9hPa
推定海面気圧
1019.2hPa
体感温度
21.2
(無風時)
25.3
HI
28
気温前日比
+0.6
体感温度前日比
+1.4
HI前日比
+1.5
水平視程
>10SM
鉛直視程
データなし
雲底高度
No dense clouds
V/I
VMC (VFR)
RVR
No RVR data
卓越風
6kt from 230°
ガスト
No gust
降水
報告なし
その他の天気
報告なし
散在する雲 @ 2600ft AGL

KMIA 271553Z 23006KT 10SM SCT026 27/19 A3010 RMK AO2 SLP194 T02670194 $

KFLL/FLL  -  フォートローダーデール・ハリウッド

観測日時
2021-01-27 15:53 (UTC) (32分前)
気温
27.2
露点
21.1
湿数
6.1
相対湿度
69.4%
QNH
1019.0hPa
推定現地気圧
1016.6hPa
推定海面気圧
1018.9hPa
体感温度
21.8
(無風時)
26.1
HI
29.1
気温前日比
+0.5
体感温度前日比
+1.3
HI前日比
+1.1
水平視程
>10SM
鉛直視程
データなし
雲底高度
No dense clouds
V/I
VMC (VFR)
RVR
No RVR data
卓越風
7kt from 230°
ガスト
No gust
降水
報告なし
その他の天気
報告なし
散在する雲 @ 2600ft AGL

KFLL 271553Z 23007KT 10SM SCT026 27/21 A3009 RMK AO2 SLP189 T02720211

KTPA/TPA  -  タンパ

観測日時
2021-01-27 15:53 (UTC) (32分前)
気温
20.6
露点
19.4
湿数
1.2
相対湿度
92.8%
QNH
1019.3hPa
推定現地気圧
1018.3hPa
推定海面気圧
1019.2hPa
体感温度
13.5
(無風時)
21.9
HI
21.1
気温前日比
±0
体感温度前日比
-0.3
HI前日比
±0
水平視程
8SM
鉛直視程
データなし
雲底高度
800ft AGL
V/I
SVMC (SVFR)
RVR
No RVR data
卓越風
9kt from 190°
ガスト
No gust
降水
報告なし
その他の天気
報告なし
隙間のある雲 @ 800ft AGL

KTPA 271553Z 19009KT 8SM BKN008 21/19 A3010 RMK AO2 SLP193 T02060194

KMSP/MSP  -  ミネアポリス・セントポール

観測日時
2021-01-27 15:53 (UTC) (32分前)
気温
-12.2
露点
-18.3
湿数
6.1
相対湿度
60.4%
QNH
1033.2hPa
推定現地気圧
1002.2hPa
推定海面気圧
1036.4hPa
体感温度
-22.1
(無風時)
-3.9
HI
-15.8
気温前日比
-2.2
体感温度前日比
+0.6
HI前日比
-2.8
水平視程
>10SM
鉛直視程
データなし
雲底高度
8000ft AGL
V/I
VMC (VFR)
RVR
No RVR data
卓越風
5kt from 20°
ガスト
No gust
降水
報告なし
その他の天気
報告なし
全天を覆う雲 @ 8000ft AGL

KMSP 271553Z 02005KT 10SM OVC080 M12/M18 A3051 RMK AO2 SLP350 T11221183

KAUS/AUS  -  オースティン・バーグストロム

観測日時
2021-01-27 15:53 (UTC) (32分前)
気温
12.8
露点
2.2
湿数
10.6
相対湿度
48.4%
QNH
1025.4hPa
推定現地気圧
1005.5hPa
推定海面気圧
1025.5hPa
体感温度
3.1
(無風時)
14.6
HI
11.4
気温前日比
-1.1
体感温度前日比
-5.6
HI前日比
-1.3
水平視程
>10SM
鉛直視程
データなし
雲底高度
No dense clouds
V/I
VMC (VFR)
RVR
No RVR data
卓越風
11kt from 320°
ガスト
17kt
降水
報告なし
その他の天気
報告なし
散在する雲 @ 30000ft AGL

KAUS 271553Z 32011G17KT 10SM SCT300 13/02 A3028 RMK AO2 SLP255 T01280022

株式会社マネーパートナーズ 【Manepa Card】

KPHX/PHX  -  フェニックス・スカイハーバー

観測日時
2021-01-27 15:51 (UTC) (34分前)
気温
6.7
露点
0
湿数
6.7
相対湿度
62.3%
QNH
1025.1hPa
推定現地気圧
983.8hPa
推定海面気圧
1026.0hPa
体感温度
-3.9
(無風時)
10.2
HI
5.1
気温前日比
-0.5
体感温度前日比
-0.6
HI前日比
-0.5
水平視程
>10SM
鉛直視程
データなし
雲底高度
No dense clouds
V/I
VMC (VFR)
RVR
No RVR data
卓越風
9kt from 80°
ガスト
No gust
降水
報告なし
その他の天気
報告なし
少しの雲 @ 25000ft AGL

KPHX 271551Z 08009KT 10SM FEW250 07/00 A3027 RMK AO2 SLP248 T00670000 $

KTUS/TUS  -  ツーソン

観測日時
2021-01-27 15:53 (UTC) (32分前)
気温
6.1
露点
-3.3
湿数
9.4
相対湿度
50.9%
QNH
1024.0hPa
推定現地気圧
930.0hPa
推定海面気圧
1025.3hPa
体感温度
-6.7
(無風時)
9.9
HI
4.1
気温前日比
+2.2
体感温度前日比
-14.3
HI前日比
+1.6
水平視程
>10SM
鉛直視程
データなし
雲底高度
No dense clouds
V/I
VMC (VFR)
RVR
No RVR data
卓越風
17kt from 120°
ガスト
23kt
降水
報告なし
その他の天気
報告なし
目立った雲なし

KTUS 271553Z 12017G23KT 10SM CLR 06/M03 A3024 RMK AO2 PK WND 12027/1542 SLP234 T00611033

KSFO/SFO  -  サンフランシスコ

観測日時
2021-01-27 14:56 (UTC) (89分前)
気温
12.2
露点
7.2
湿数
5
相対湿度
71.5%
QNH
1008.1hPa
推定現地気圧
1007.6hPa
推定海面気圧
1008.1hPa
体感温度
4.2
(無風時)
14.4
HI
11.3
気温前日比
+6.6
体感温度前日比
+5.9
HI前日比
+7.3
水平視程
8SM
鉛直視程
データなし
雲底高度
10000ft AGL
V/I
VMC (VFR)
RVR
No RVR data
卓越風
6kt from 190°
ガスト
No gust
降水
報告なし
その他の天気
報告なし
少しの雲 @ 2600ft AGL / 隙間のある雲 @ 10000ft AGL

KSFO 271456Z 19006KT 8SM FEW026 BKN100 12/07 A2977 RMK AO2 SLP082 T01220072 53021 $

KLAX/LAX  -  ロサンゼルス

観測日時
2021-01-27 15:53 (UTC) (32分前)
気温
9.4
露点
1.1
湿数
8.3
相対湿度
56.1%
QNH
1022.0hPa
推定現地気圧
1017.3hPa
推定海面気圧
1022.1hPa
体感温度
0.1
(無風時)
12.2
HI
7.9
気温前日比
+2.2
体感温度前日比
-0.9
HI前日比
+2.7
水平視程
>10SM
鉛直視程
データなし
雲底高度
9500ft AGL
V/I
VMC (VFR)
RVR
No RVR data
卓越風
8kt from 80°
ガスト
No gust
降水
報告なし
その他の天気
報告なし
少しの雲 @ 2200ft AGL / 散在する雲 @ 3000ft AGL / 隙間のある雲 @ 9500ft AGL

KLAX 271553Z 08008KT 10SM FEW022 SCT030 BKN095 09/01 A3018 RMK AO2 SLP219 T00940011

KSJC/SJC  -  サンノゼ

観測日時
2021-01-27 15:53 (UTC) (32分前)
気温
8.9
露点
6.7
湿数
2.2
相対湿度
86.1%
QNH
1009.5hPa
推定現地気圧
1007.2hPa
推定海面気圧
1009.5hPa
体感温度
-3.2
(無風時)
11.7
HI
8.1
気温前日比
+6.7
体感温度前日比
+5.4
HI前日比
+7.5
水平視程
>10SM
鉛直視程
データなし
雲底高度
10000ft AGL
V/I
VMC (VFR)
RVR
No RVR data
卓越風
11kt from 150°
ガスト
No gust
降水
報告なし
その他の天気
報告なし
少しの雲 @ 1700ft AGL / 散在する雲 @ 5000ft AGL / 隙間のある雲 @ 10000ft AGL

KSJC 271553Z 15011KT 10SM FEW017 SCT050 BKN100 09/07 A2981 RMK AO2 SLP095 T00890067

18.7msec